createdAt,value
2017-11-15T00:00:06.401Z,34.67
2017-11-15T00:02:34.858Z,34.10
2017-11-15T00:05:03.251Z,33.80
2017-11-15T00:07:31.632Z,34.70
2017-11-15T00:10:00.127Z,35.05
2017-11-15T00:12:28.508Z,40.88
2017-11-15T00:14:56.906Z,38.55
2017-11-15T00:17:26.071Z,37.95
2017-11-15T00:19:54.451Z,37.58
2017-11-15T00:22:37.718Z,38.47
2017-11-15T00:25:06.101Z,41.08
2017-11-15T00:27:34.479Z,39.78
2017-11-15T00:30:02.868Z,38.65
2017-11-15T00:32:31.275Z,37.33
2017-11-15T00:34:59.738Z,39.03
2017-11-15T00:37:28.124Z,40.28
2017-11-15T00:39:56.504Z,39.10
2017-11-15T00:42:24.915Z,36.00
2017-11-15T00:44:54.074Z,37.00
2017-11-15T00:47:22.782Z,37.63
2017-11-15T00:49:51.168Z,41.78
2017-11-15T00:52:19.539Z,41.40
2017-11-15T00:54:47.946Z,41.65
2017-11-15T00:57:17.095Z,42.65
2017-11-15T00:59:45.524Z,37.30
2017-11-15T01:02:14.663Z,40.60
2017-11-15T01:04:43.051Z,37.88
2017-11-15T01:07:11.447Z,41.75
2017-11-15T01:09:39.822Z,40.30
2017-11-15T01:12:08.238Z,39.63
2017-11-15T01:14:37.386Z,39.55
2017-11-15T01:17:05.760Z,34.60
2017-11-15T01:19:34.151Z,35.28
2017-11-15T01:22:02.523Z,33.63
2017-11-15T01:24:31.195Z,33.97
2017-11-15T01:26:59.568Z,35.53
2017-11-15T01:29:27.941Z,36.78
2017-11-15T01:31:56.339Z,36.63
2017-11-15T01:34:24.721Z,38.17
2017-11-15T01:36:53.405Z,35.30
2017-11-15T01:39:21.793Z,37.28
2017-11-15T01:41:50.935Z,35.22
2017-11-15T01:44:20.108Z,33.80
2017-11-15T01:46:48.513Z,36.47
2017-11-15T01:49:17.839Z,36.60
2017-11-15T01:51:46.220Z,35.08
2017-11-15T01:54:14.601Z,33.35
2017-11-15T01:56:43.107Z,33.70
2017-11-15T01:59:11.495Z,34.22
2017-11-15T02:01:39.958Z,34.08
2017-11-15T02:04:08.324Z,36.40
2017-11-15T02:06:37.111Z,34.10
2017-11-15T02:09:05.488Z,29.87
2017-11-15T02:11:33.862Z,33.22
2017-11-15T02:14:02.245Z,35.00
2017-11-15T02:16:30.634Z,33.50
2017-11-15T02:18:59.063Z,33.00
2017-11-15T02:21:28.200Z,33.17
2017-11-15T02:23:56.579Z,36.33
2017-11-15T02:26:25.013Z,33.25
2017-11-15T02:28:54.170Z,33.30
2017-11-15T02:31:22.840Z,31.15
2017-11-15T02:33:51.232Z,31.87
2017-11-15T02:36:19.620Z,28.83
2017-11-15T02:38:48.035Z,32.08
2017-11-15T02:41:17.189Z,34.03
2017-11-15T02:43:45.757Z,32.60
2017-11-15T02:46:14.178Z,34.50
2017-11-15T02:48:42.579Z,33.50
2017-11-15T02:51:11.748Z,34.97
2017-11-15T02:53:40.887Z,33.25
2017-11-15T02:56:09.452Z,35.28
2017-11-15T02:58:37.827Z,35.97
2017-11-15T03:01:06.972Z,33.13
2017-11-15T03:03:35.383Z,32.53
2017-11-15T03:06:03.753Z,33.30
2017-11-15T03:08:32.425Z,33.25
2017-11-15T03:11:00.826Z,30.60
2017-11-15T03:13:29.972Z,28.33
2017-11-15T03:15:58.363Z,34.13
2017-11-15T03:18:26.735Z,31.00
2017-11-15T03:20:55.162Z,31.42
2017-11-15T03:23:23.546Z,28.52
2017-11-15T03:25:51.921Z,29.48
2017-11-15T03:28:20.328Z,30.83
2017-11-15T03:30:49.468Z,30.58
2017-11-15T03:33:17.879Z,31.12
2017-11-15T03:35:46.260Z,31.55
2017-11-15T03:38:14.635Z,30.25
2017-11-15T03:40:43.079Z,30.15
2017-11-15T03:43:11.442Z,31.48
2017-11-15T03:45:39.916Z,30.95
2017-11-15T03:48:08.295Z,30.05
2017-11-15T03:50:36.696Z,30.62
2017-11-15T03:53:05.089Z,32.97
2017-11-15T03:55:33.459Z,30.00
2017-11-15T03:58:02.127Z,31.40
2017-11-15T04:00:30.519Z,30.40
2017-11-15T04:02:58.886Z,31.67
2017-11-15T04:05:27.278Z,30.15
2017-11-15T04:07:55.753Z,30.00
2017-11-15T04:10:24.156Z,31.23
2017-11-15T04:12:52.582Z,28.23
2017-11-15T04:15:20.992Z,28.52
2017-11-15T04:17:49.393Z,28.17
2017-11-15T04:20:17.774Z,28.27
2017-11-15T04:22:46.247Z,27.02
2017-11-15T04:25:14.615Z,30.92
2017-11-15T04:27:43.173Z,27.00
2017-11-15T04:30:11.546Z,26.87
2017-11-15T04:32:39.915Z,26.15
2017-11-15T04:35:08.311Z,28.77
2017-11-15T04:37:36.676Z,27.42
2017-11-15T04:40:05.100Z,29.40
2017-11-15T04:42:33.467Z,31.80
2017-11-15T04:45:01.844Z,26.05
2017-11-15T04:47:30.244Z,24.73
2017-11-15T04:49:58.703Z,27.45
2017-11-15T04:52:27.411Z,28.70
2017-11-15T04:54:55.791Z,25.95
2017-11-15T04:57:24.171Z,27.25
2017-11-15T04:59:52.578Z,25.90
2017-11-15T05:02:21.741Z,29.00
2017-11-15T05:04:50.495Z,27.62
2017-11-15T05:07:18.888Z,28.02
2017-11-15T05:09:47.260Z,26.55
2017-11-15T05:12:15.661Z,29.05
2017-11-15T05:14:44.041Z,25.33
2017-11-15T05:17:12.439Z,25.55
2017-11-15T05:19:40.812Z,28.83
2017-11-15T05:22:09.207Z,27.05
2017-11-15T05:24:37.622Z,28.17
2017-11-15T05:27:06.008Z,28.80
2017-11-15T05:29:34.538Z,27.37
2017-11-15T05:32:03.676Z,25.75
2017-11-15T05:34:32.051Z,26.10
2017-11-15T05:37:00.448Z,26.70
2017-11-15T05:39:28.834Z,24.90
2017-11-15T05:41:57.327Z,25.27
2017-11-15T05:44:25.695Z,25.67
2017-11-15T05:46:54.063Z,25.30
2017-11-15T05:49:22.467Z,28.23
2017-11-15T05:51:50.838Z,28.12
2017-11-15T05:54:19.440Z,25.40
2017-11-15T05:56:47.815Z,25.95
2017-11-15T05:59:16.184Z,24.98
2017-11-15T06:01:44.587Z,24.05
2017-11-15T06:04:13.737Z,24.12
2017-11-15T06:06:42.272Z,25.58
2017-11-15T06:09:10.704Z,23.42
2017-11-15T06:11:39.176Z,25.30
2017-11-15T06:14:07.577Z,25.40
2017-11-15T06:16:35.922Z,25.67
2017-11-15T06:19:04.825Z,25.20
2017-11-15T06:21:33.115Z,25.35
2017-11-15T06:24:01.613Z,27.50
2017-11-15T06:26:30.032Z,27.52
2017-11-15T06:28:58.430Z,26.30
2017-11-15T06:31:27.017Z,25.77
2017-11-15T06:33:55.392Z,24.73
2017-11-15T06:36:23.832Z,25.40
2017-11-15T06:38:52.896Z,27.37
2017-11-15T06:41:21.271Z,28.40
2017-11-15T06:43:50.449Z,26.00
2017-11-15T06:46:18.837Z,27.37
2017-11-15T06:48:47.207Z,28.48
2017-11-15T06:51:15.648Z,27.35
2017-11-15T06:53:44.800Z,27.10
2017-11-15T06:56:13.461Z,27.73
2017-11-15T06:58:41.832Z,28.27
2017-11-15T07:01:10.218Z,26.30
2017-11-15T07:03:38.625Z,31.35
2017-11-15T07:06:07.239Z,30.80
2017-11-15T07:08:36.439Z,29.55
2017-11-15T07:11:05.580Z,31.42
2017-11-15T07:13:33.965Z,32.28
2017-11-15T07:16:02.372Z,31.33
2017-11-15T07:18:30.740Z,32.13
2017-11-15T07:20:59.263Z,31.42
2017-11-15T07:23:27.641Z,33.47
2017-11-15T07:25:56.027Z,32.38
2017-11-15T07:28:24.424Z,31.50
2017-11-15T07:30:52.796Z,32.70
2017-11-15T07:33:21.399Z,33.17
2017-11-15T07:35:49.779Z,35.25
2017-11-15T07:38:18.156Z,35.53
2017-11-15T07:40:46.573Z,33.95
2017-11-15T07:43:14.959Z,30.62
2017-11-15T07:45:44.216Z,29.77
2017-11-15T07:48:12.594Z,32.50
2017-11-15T07:50:40.969Z,28.75
2017-11-15T07:53:09.365Z,30.02
2017-11-15T07:55:37.741Z,32.00
2017-11-15T07:58:06.239Z,27.08
2017-11-15T08:00:34.693Z,29.70
2017-11-15T08:03:03.073Z,27.30
2017-11-15T08:05:31.476Z,27.33
2017-11-15T08:07:59.852Z,26.02
2017-11-15T08:10:28.496Z,25.80
2017-11-15T08:12:56.872Z,25.30
2017-11-15T08:15:25.238Z,24.17
2017-11-15T08:17:53.640Z,26.70
2017-11-15T08:20:22.011Z,26.55
2017-11-15T08:22:50.440Z,25.37
2017-11-15T08:25:18.818Z,23.73
2017-11-15T08:27:47.193Z,26.65
2017-11-15T08:30:15.587Z,24.98
2017-11-15T08:32:44.718Z,25.88
2017-11-15T08:35:13.127Z,23.90
2017-11-15T08:37:41.509Z,23.87
2017-11-15T08:40:09.886Z,22.10
2017-11-15T08:42:38.288Z,26.05
2017-11-15T08:45:07.439Z,25.77
2017-11-15T08:47:36.015Z,22.95
2017-11-15T08:50:04.388Z,25.77
2017-11-15T08:52:32.787Z,23.58
2017-11-15T08:55:01.186Z,28.48
2017-11-15T08:57:29.567Z,24.70
2017-11-15T08:59:58.315Z,24.85
2017-11-15T09:02:26.691Z,27.50
2017-11-15T09:04:55.085Z,24.92
2017-11-15T09:07:23.551Z,24.35
2017-11-15T09:09:51.920Z,27.52
2017-11-15T09:12:20.446Z,28.50
2017-11-15T09:14:48.832Z,29.80
2017-11-15T09:17:17.209Z,27.70
2017-11-15T09:19:45.663Z,25.45
2017-11-15T09:22:14.040Z,25.83
2017-11-15T09:24:42.912Z,25.45
2017-11-15T09:27:11.279Z,29.27
2017-11-15T09:29:39.875Z,26.12
2017-11-15T09:32:08.268Z,24.10
2017-11-15T09:34:36.668Z,24.55
2017-11-15T09:37:05.111Z,22.95
2017-11-15T09:39:33.482Z,22.83
2017-11-15T09:42:01.849Z,24.63
2017-11-15T09:44:30.380Z,22.85
2017-11-15T09:46:58.772Z,23.60
2017-11-15T09:49:27.187Z,25.62
2017-11-15T09:51:56.332Z,24.40
2017-11-15T09:54:24.703Z,30.15
2017-11-15T09:56:53.112Z,27.75
2017-11-15T09:59:21.556Z,27.48
2017-11-15T10:01:50.331Z,26.25
2017-11-15T10:04:18.700Z,20.95
2017-11-15T10:06:47.072Z,22.90
2017-11-15T10:09:17.243Z,21.87
2017-11-15T10:11:45.618Z,20.00
2017-11-15T10:14:14.035Z,22.85
2017-11-15T10:16:43.172Z,21.50
2017-11-15T10:19:11.538Z,21.45
2017-11-15T10:21:39.957Z,22.80
2017-11-15T10:24:08.316Z,21.55
2017-11-15T10:26:37.703Z,24.75
2017-11-15T10:29:06.076Z,25.35
2017-11-15T10:31:34.450Z,22.23
2017-11-15T10:34:02.858Z,23.02
2017-11-15T10:36:31.239Z,22.05
2017-11-15T10:38:59.680Z,21.10
2017-11-15T10:41:28.059Z,20.92
2017-11-15T10:43:56.437Z,19.15
2017-11-15T10:46:25.179Z,20.25
2017-11-15T10:48:53.548Z,18.55
2017-11-15T10:51:21.957Z,21.00
2017-11-15T10:53:51.112Z,18.52
2017-11-15T10:56:19.484Z,19.30
2017-11-15T10:58:47.881Z,17.80
2017-11-15T11:01:16.287Z,19.30
2017-11-15T11:03:45.424Z,20.23
2017-11-15T11:06:13.829Z,24.25
2017-11-15T11:08:42.257Z,21.27
2017-11-15T11:11:11.583Z,21.23
2017-11-15T11:13:39.955Z,21.02
2017-11-15T11:16:08.336Z,22.90
2017-11-15T11:18:36.729Z,19.83
2017-11-15T11:21:05.119Z,18.83
2017-11-15T11:23:33.889Z,19.55
2017-11-15T11:26:02.264Z,20.20
2017-11-15T11:28:30.642Z,23.45
2017-11-15T11:30:59.031Z,23.12
2017-11-15T11:33:27.400Z,21.37
2017-11-15T11:35:56.914Z,19.90
2017-11-15T11:38:25.279Z,19.50
2017-11-15T11:40:53.656Z,22.15
2017-11-15T11:43:22.069Z,20.08
2017-11-15T11:45:50.453Z,21.60
2017-11-15T11:48:19.112Z,19.10
2017-11-15T11:50:47.493Z,21.05
2017-11-15T11:53:15.865Z,21.67
2017-11-15T11:55:44.280Z,19.12
2017-11-15T11:58:12.658Z,22.55
2017-11-15T12:00:41.152Z,24.15
2017-11-15T12:03:10.317Z,21.40
2017-11-15T12:05:38.715Z,22.90
2017-11-15T12:08:07.112Z,24.00
2017-11-15T12:10:36.265Z,24.35
2017-11-15T12:13:04.717Z,24.20
2017-11-15T12:15:33.112Z,22.90
2017-11-15T12:18:01.498Z,27.40
2017-11-15T12:20:29.886Z,24.17
2017-11-15T12:22:58.278Z,24.60
2017-11-15T12:25:26.700Z,27.25
2017-11-15T12:27:55.103Z,26.25
2017-11-15T12:30:23.476Z,26.08
2017-11-15T12:32:51.878Z,33.35
2017-11-15T12:35:20.255Z,28.50
2017-11-15T12:37:48.928Z,28.25
2017-11-15T12:40:17.315Z,29.25
2017-11-15T12:42:45.685Z,29.95
2017-11-15T12:45:14.076Z,31.55
2017-11-15T12:47:42.458Z,33.50
2017-11-15T12:50:11.144Z,36.30
2017-11-15T12:52:39.844Z,40.00
2017-11-15T12:55:08.223Z,37.15
2017-11-15T12:57:36.684Z,36.08
2017-11-15T13:00:05.073Z,35.58
2017-11-15T13:02:33.904Z,35.42
2017-11-15T13:05:03.044Z,35.58
2017-11-15T13:07:31.432Z,33.83
2017-11-15T13:09:59.851Z,33.08
2017-11-15T13:12:29.000Z,36.35
2017-11-15T13:14:57.532Z,36.80
2017-11-15T13:17:26.693Z,32.35
2017-11-15T13:19:55.076Z,34.03
2017-11-15T13:22:23.468Z,31.62
2017-11-15T13:24:51.841Z,33.03
2017-11-15T13:27:20.365Z,31.83
2017-11-15T13:29:48.744Z,33.45
2017-11-15T13:32:17.110Z,30.40
2017-11-15T13:34:46.327Z,29.42
2017-11-15T13:37:14.695Z,29.92
2017-11-15T13:39:43.297Z,28.42
2017-11-15T13:42:11.664Z,29.42
2017-11-15T13:44:40.054Z,26.35
2017-11-15T13:47:08.473Z,47.15
2017-11-15T13:49:36.854Z,30.05
2017-11-15T13:52:05.410Z,33.05
2017-11-15T13:54:33.789Z,29.98
2017-11-15T13:57:02.435Z,28.08
2017-11-15T13:59:30.841Z,32.33
2017-11-15T14:01:59.259Z,28.62
2017-11-15T14:04:27.817Z,26.67
2017-11-15T14:06:56.296Z,27.50
2017-11-15T14:09:24.711Z,29.90
2017-11-15T14:11:53.109Z,27.13
2017-11-15T14:14:22.406Z,27.00
2017-11-15T14:16:50.914Z,27.70
2017-11-15T14:19:19.354Z,26.35
2017-11-15T14:21:48.518Z,26.85
2017-11-15T14:24:16.968Z,24.20
2017-11-15T14:26:45.367Z,27.90
2017-11-15T14:29:14.335Z,26.55
2017-11-15T14:31:42.705Z,26.35
2017-11-15T14:34:11.101Z,27.10
2017-11-15T14:36:39.512Z,29.23
2017-11-15T14:39:07.898Z,28.80
2017-11-15T14:41:36.686Z,28.92
2017-11-15T14:44:05.075Z,28.12
2017-11-15T14:46:33.464Z,27.80
2017-11-15T14:49:02.623Z,26.73
2017-11-15T14:51:31.000Z,27.60
2017-11-15T14:53:59.560Z,27.15
2017-11-15T14:56:27.937Z,25.08
2017-11-15T14:58:56.309Z,23.27
2017-11-15T15:01:24.713Z,23.85
2017-11-15T15:03:53.083Z,27.80
2017-11-15T15:06:21.917Z,27.87
2017-11-15T15:08:50.302Z,27.65
2017-11-15T15:11:19.440Z,23.50
2017-11-15T15:13:47.839Z,26.45
2017-11-15T15:16:16.250Z,25.52
2017-11-15T15:18:45.703Z,25.77
2017-11-15T15:21:14.071Z,22.75
2017-11-15T15:23:42.448Z,26.73
2017-11-15T15:26:10.841Z,25.92
2017-11-15T15:28:39.230Z,25.98
2017-11-15T15:31:07.918Z,24.15
2017-11-15T15:33:36.287Z,24.08
2017-11-15T15:36:04.687Z,25.33
2017-11-15T15:38:33.076Z,25.08
2017-11-15T15:41:01.447Z,25.40
2017-11-15T15:43:29.870Z,22.17
2017-11-15T15:45:58.245Z,25.27
2017-11-15T15:48:27.381Z,25.05
2017-11-15T15:50:55.774Z,28.77
2017-11-15T15:53:24.163Z,24.08
2017-11-15T15:55:52.831Z,27.95
2017-11-15T15:58:21.224Z,27.17
2017-11-15T16:00:49.599Z,28.10
2017-11-15T16:03:18.081Z,25.20
2017-11-15T16:05:46.465Z,26.33
2017-11-15T16:08:15.024Z,27.42
2017-11-15T16:10:43.485Z,28.33
2017-11-15T16:13:11.859Z,31.62
2017-11-15T16:15:40.267Z,31.27
2017-11-15T16:18:08.661Z,31.00
2017-11-15T16:20:37.090Z,27.20
2017-11-15T16:23:05.478Z,28.85
2017-11-15T16:25:33.848Z,32.38
2017-11-15T16:28:02.254Z,27.90
2017-11-15T16:30:30.816Z,32.95
2017-11-15T16:32:59.649Z,31.05
2017-11-15T16:35:28.308Z,29.33
2017-11-15T16:37:56.740Z,32.10
2017-11-15T16:40:25.166Z,29.05
2017-11-15T16:42:53.532Z,31.27
2017-11-15T16:45:22.352Z,35.22
2017-11-15T16:47:50.733Z,33.20
2017-11-15T16:50:19.276Z,29.85
2017-11-15T16:52:48.194Z,29.40
2017-11-15T16:55:16.733Z,32.13
2017-11-15T16:57:45.168Z,37.85
2017-11-15T17:00:13.555Z,30.95
2017-11-15T17:02:41.945Z,33.42
2017-11-15T17:05:10.342Z,31.40
2017-11-15T17:07:39.488Z,33.03
2017-11-15T17:10:08.286Z,34.58
2017-11-15T17:12:37.468Z,35.55
2017-11-15T17:15:05.881Z,36.15
2017-11-15T17:17:34.275Z,32.55
2017-11-15T17:20:03.426Z,30.77
2017-11-15T17:22:31.872Z,29.27
2017-11-15T17:25:00.247Z,31.35
2017-11-15T17:27:28.626Z,31.80
2017-11-15T17:29:57.044Z,31.58
2017-11-15T17:32:25.433Z,30.05
2017-11-15T17:34:54.111Z,27.92
2017-11-15T17:37:22.478Z,29.15
2017-11-15T17:39:50.889Z,33.10
2017-11-15T17:42:19.282Z,33.90
2017-11-15T17:44:48.469Z,31.98
2017-11-15T17:47:16.907Z,30.25
2017-11-15T17:49:45.310Z,30.73
2017-11-15T17:52:13.720Z,29.08
2017-11-15T17:54:42.896Z,30.88
2017-11-15T17:57:11.269Z,29.30
2017-11-15T17:59:39.699Z,32.83
2017-11-15T18:02:08.092Z,32.63
2017-11-15T18:04:36.470Z,33.85
2017-11-15T18:07:04.920Z,37.03
2017-11-15T18:09:34.062Z,32.38
2017-11-15T18:12:02.479Z,33.17
2017-11-15T18:14:31.633Z,30.02
2017-11-15T18:17:00.038Z,34.15
2017-11-15T18:19:28.475Z,29.75
2017-11-15T18:21:56.878Z,28.80
2017-11-15T18:24:25.724Z,34.83
2017-11-15T18:26:54.871Z,33.78
2017-11-15T18:29:23.243Z,31.87
2017-11-15T18:31:51.639Z,30.98
2017-11-15T18:34:20.022Z,30.88
2017-11-15T18:36:48.635Z,32.70
2017-11-15T18:39:17.936Z,33.25
2017-11-15T18:41:47.600Z,29.95
2017-11-15T18:44:16.023Z,29.02
2017-11-15T18:46:45.774Z,29.63
2017-11-15T18:49:14.666Z,28.60
2017-11-15T18:51:43.442Z,31.42
2017-11-15T18:54:12.067Z,32.22
2017-11-15T18:56:40.801Z,34.45
2017-11-15T18:59:09.726Z,31.48
2017-11-15T19:01:38.263Z,31.30
2017-11-15T19:04:06.811Z,32.95
2017-11-15T19:06:35.829Z,31.27
2017-11-15T19:09:04.456Z,33.63
2017-11-15T19:11:33.000Z,35.42
2017-11-15T19:14:02.561Z,35.30
2017-11-15T19:16:31.832Z,29.52
2017-11-15T19:19:00.679Z,31.42
2017-11-15T19:21:30.103Z,28.67
2017-11-15T19:23:58.841Z,28.05
2017-11-15T19:26:27.611Z,31.23
2017-11-15T19:28:56.180Z,30.67
2017-11-15T19:31:24.696Z,32.47
2017-11-15T19:33:53.108Z,30.90
2017-11-15T19:36:21.829Z,28.42
2017-11-15T19:38:50.695Z,30.30
2017-11-15T19:41:19.564Z,31.05
2017-11-15T19:43:49.344Z,27.58
2017-11-15T19:46:17.971Z,26.52
2017-11-15T19:48:46.868Z,28.65
2017-11-15T19:51:15.751Z,30.98
2017-11-15T19:53:44.342Z,31.50
2017-11-15T19:56:13.000Z,29.98
2017-11-15T19:58:41.663Z,29.77
2017-11-15T20:01:10.485Z,33.55
2017-11-15T20:03:38.947Z,29.87
2017-11-15T20:06:09.666Z,33.13
2017-11-15T20:08:38.860Z,30.35
2017-11-15T20:11:07.624Z,31.58
2017-11-15T20:13:37.203Z,31.67
2017-11-15T20:16:07.562Z,28.75
2017-11-15T20:18:36.421Z,29.20
2017-11-15T20:21:05.486Z,29.73
2017-11-15T20:23:34.212Z,29.55
2017-11-15T20:26:03.656Z,29.17
2017-11-15T20:28:32.475Z,28.65
2017-11-15T20:31:01.381Z,28.10
2017-11-15T20:33:30.523Z,29.60
2017-11-15T20:35:59.416Z,27.48
2017-11-15T20:38:29.214Z,26.12
2017-11-15T20:40:58.090Z,28.38
2017-11-15T20:43:27.623Z,26.37
2017-11-15T20:45:57.584Z,28.90
2017-11-15T20:48:27.197Z,29.35
2017-11-15T20:50:56.018Z,26.08
2017-11-15T20:53:24.981Z,30.95
2017-11-15T20:55:54.331Z,33.17
2017-11-15T20:58:23.320Z,32.03
2017-11-15T21:00:52.169Z,29.90
2017-11-15T21:03:20.816Z,33.50
2017-11-15T21:05:51.406Z,30.00
2017-11-15T21:08:20.446Z,30.55
2017-11-15T21:10:49.905Z,28.50
2017-11-15T21:13:18.753Z,29.70
2017-11-15T21:15:48.340Z,28.87
2017-11-15T21:18:17.888Z,29.85
2017-11-15T21:20:46.873Z,31.25
2017-11-15T21:23:16.733Z,29.08
2017-11-15T21:25:46.300Z,32.15
2017-11-15T21:28:15.035Z,31.27
2017-11-15T21:30:44.462Z,30.95
2017-11-15T21:33:13.303Z,30.05
2017-11-15T21:35:42.386Z,31.30
2017-11-15T21:38:10.815Z,29.85
2017-11-15T21:40:39.316Z,29.20
2017-11-15T21:43:08.820Z,30.20
2017-11-15T21:45:38.250Z,28.85
2017-11-15T21:48:07.300Z,31.00
2017-11-15T21:50:36.057Z,27.52
2017-11-15T21:53:04.436Z,27.40
2017-11-15T21:55:32.872Z,33.05
2017-11-15T21:58:01.365Z,31.33
2017-11-15T22:00:29.790Z,31.02
2017-11-15T22:02:58.465Z,33.03
2017-11-15T22:05:26.899Z,26.90
2017-11-15T22:07:55.297Z,29.58
2017-11-15T22:10:23.669Z,27.00
2017-11-15T22:12:52.285Z,27.17
2017-11-15T22:15:20.661Z,30.45
2017-11-15T22:17:49.094Z,27.83
2017-11-15T22:20:18.323Z,28.15
2017-11-15T22:22:46.696Z,31.12
2017-11-15T22:25:15.689Z,29.40
2017-11-15T22:27:44.233Z,31.10
2017-11-15T22:30:12.619Z,29.67
2017-11-15T22:32:41.785Z,30.05
2017-11-15T22:35:10.948Z,26.92
2017-11-15T22:37:39.566Z,29.75
2017-11-15T22:40:07.959Z,31.12
2017-11-15T22:42:36.349Z,30.40
2017-11-15T22:45:04.782Z,34.60
2017-11-15T22:47:33.172Z,30.37
2017-11-15T22:50:01.577Z,36.22
2017-11-15T22:52:29.964Z,33.67
2017-11-15T22:54:58.334Z,31.60
2017-11-15T22:57:26.729Z,33.85
2017-11-15T22:59:55.876Z,30.48
2017-11-15T23:02:24.456Z,29.70
2017-11-15T23:04:52.836Z,31.37
2017-11-15T23:07:21.207Z,30.65
2017-11-15T23:09:49.605Z,33.25
2017-11-15T23:12:17.979Z,30.52
2017-11-15T23:14:46.505Z,34.45
2017-11-15T23:17:15.643Z,32.10
2017-11-15T23:19:44.016Z,35.10
2017-11-15T23:22:12.415Z,34.88
2017-11-15T23:24:40.789Z,37.70
2017-11-15T23:27:10.281Z,36.00
2017-11-15T23:29:38.665Z,36.30
2017-11-15T23:32:07.040Z,35.22
2017-11-15T23:34:35.431Z,34.75
2017-11-15T23:37:03.835Z,35.70
2017-11-15T23:39:32.491Z,38.28
2017-11-15T23:42:00.883Z,35.60
2017-11-15T23:44:29.260Z,37.78
2017-11-15T23:46:57.667Z,38.60
2017-11-15T23:49:26.824Z,34.65
2017-11-15T23:51:55.405Z,39.55
2017-11-15T23:54:23.779Z,36.80
2017-11-15T23:56:52.156Z,36.83
2017-11-15T23:59:20.555Z,36.13
